createdAt,value
2022-08-16T00:00:20.494Z, 35.84
2022-08-16T00:01:10.191Z, 36.12
2022-08-16T00:02:11.970Z, 36.11
2022-08-16T00:03:13.573Z, 36.21
2022-08-16T00:04:10.429Z, 36.03
2022-08-16T00:05:10.364Z, 35.99
2022-08-16T00:06:10.360Z, 35.93
2022-08-16T00:07:10.446Z, 35.99
2022-08-16T00:08:10.425Z, 36.24
2022-08-16T00:09:10.847Z, 36.01
2022-08-16T00:10:10.493Z, 36.18
2022-08-16T00:11:15.356Z, 36.13
2022-08-16T00:12:10.611Z, 35.96
2022-08-16T00:13:10.652Z, 35.87
2022-08-16T00:14:10.632Z, 36.08
2022-08-16T00:15:11.653Z, 36.05
2022-08-16T00:16:57.894Z, 36.03
2022-08-16T00:17:16.117Z, 35.88
2022-08-16T00:18:10.757Z, 35.97
2022-08-16T00:19:10.833Z, 36.09
2022-08-16T00:20:12.338Z, 35.96
2022-08-16T00:21:13.935Z, 35.75
2022-08-16T00:22:13.604Z, 35.86
2022-08-16T00:23:10.972Z, 35.94
2022-08-16T00:24:12.103Z, 36.18
2022-08-16T00:25:11.004Z, 36.26
2022-08-16T00:26:35.029Z, 36.05
2022-08-16T00:27:11.145Z, 35.93
2022-08-16T00:28:11.177Z, 35.97
2022-08-16T00:29:11.153Z, 35.82
2022-08-16T00:30:25.963Z, 36.04
2022-08-16T00:31:11.252Z, 36.03
2022-08-16T00:32:11.302Z, 35.90
2022-08-16T00:33:11.268Z, 36.19
2022-08-16T00:34:18.064Z, 36.05
2022-08-16T00:35:15.336Z, 36.04
2022-08-16T00:36:11.364Z, 36.21
2022-08-16T00:37:11.460Z, 36.04
2022-08-16T00:38:40.231Z, 36.00
2022-08-16T00:39:15.538Z, 36.00
2022-08-16T00:40:34.363Z, 36.07
2022-08-16T00:41:11.528Z, 36.05
2022-08-16T00:42:11.567Z, 36.01
2022-08-16T00:43:16.896Z, 35.99
2022-08-16T00:44:11.662Z, 36.05
2022-08-16T00:45:11.904Z, 36.02
2022-08-16T00:46:34.384Z, 35.96
2022-08-16T00:47:11.736Z, 35.85
2022-08-16T00:48:31.140Z, 35.95
2022-08-16T00:49:18.805Z, 36.01
2022-08-16T00:50:12.323Z, 35.98
2022-08-16T00:51:11.889Z, 36.04
2022-08-16T00:52:29.462Z, 36.31
2022-08-16T00:53:11.965Z, 36.00
2022-08-16T00:54:12.043Z, 35.90
2022-08-16T00:55:12.079Z, 35.83
2022-08-16T00:56:12.061Z, 36.08
2022-08-16T00:57:12.092Z, 35.92
2022-08-16T00:58:13.110Z, 35.98
2022-08-16T00:59:12.171Z, 35.79
2022-08-16T01:00:12.192Z, 35.78
2022-08-16T01:01:12.343Z, 35.95
2022-08-16T01:02:30.238Z, 36.16
2022-08-16T01:03:12.820Z, 35.92
2022-08-16T01:04:29.568Z, 35.95
2022-08-16T01:05:12.374Z, 35.91
2022-08-16T01:06:39.823Z, 36.15
2022-08-16T01:07:12.487Z, 36.05
2022-08-16T01:08:34.862Z, 35.91
2022-08-16T01:09:12.473Z, 35.91
2022-08-16T01:10:16.139Z, 35.96
2022-08-16T01:11:12.555Z, 35.87
2022-08-16T01:12:26.659Z, 35.67
2022-08-16T01:13:15.243Z, 35.73
2022-08-16T01:14:13.684Z, 35.63
2022-08-16T01:15:12.691Z, 35.69
2022-08-16T01:16:12.707Z, 35.76
2022-08-16T01:17:12.794Z, 35.74
2022-08-16T01:18:39.226Z, 36.17
2022-08-16T01:19:12.835Z, 35.95
2022-08-16T01:20:23.777Z, 35.96
2022-08-16T01:21:12.872Z, 35.85
2022-08-16T01:22:48.619Z, 35.67
2022-08-16T01:23:12.924Z, 35.93
2022-08-16T01:24:52.154Z, 35.86
2022-08-16T01:25:12.988Z, 35.84
2022-08-16T01:26:33.668Z, 35.74
2022-08-16T01:27:15.019Z, 35.92
2022-08-16T01:28:19.741Z, 35.85
2022-08-16T01:29:13.107Z, 35.83
2022-08-16T01:30:19.412Z, 35.95
2022-08-16T01:31:13.270Z, 35.92
2022-08-16T01:32:13.278Z, 35.96
2022-08-16T01:33:14.757Z, 35.90
2022-08-16T01:34:23.242Z, 36.01
2022-08-16T01:35:17.712Z, 35.80
2022-08-16T01:36:13.336Z, 35.86
2022-08-16T01:37:13.361Z, 35.86
2022-08-16T01:38:13.404Z, 36.10
2022-08-16T01:39:13.488Z, 36.00
2022-08-16T01:40:13.533Z, 35.89
2022-08-16T01:41:13.514Z, 35.79
2022-08-16T01:42:13.562Z, 35.89
2022-08-16T01:43:13.588Z, 35.82
2022-08-16T01:44:13.596Z, 35.89
2022-08-16T01:45:13.657Z, 35.91
2022-08-16T01:46:37.265Z, 35.78
2022-08-16T01:47:13.714Z, 35.90
2022-08-16T01:48:19.439Z, 35.80
2022-08-16T01:49:14.071Z, 35.66
2022-08-16T01:50:43.473Z, 35.99
2022-08-16T01:51:17.039Z, 35.70
2022-08-16T01:52:29.437Z, 35.89
2022-08-16T01:53:13.950Z, 35.70
2022-08-16T01:54:15.985Z, 35.73
2022-08-16T01:55:14.582Z, 35.97
2022-08-16T01:56:22.033Z, 35.85
2022-08-16T01:57:14.042Z, 35.99
2022-08-16T01:58:14.068Z, 35.60
2022-08-16T01:59:15.751Z, 35.83
2022-08-16T02:00:19.029Z, 35.95
2022-08-16T02:01:14.250Z, 35.50
2022-08-16T02:02:27.368Z, 35.78
2022-08-16T02:03:14.251Z, 35.70
2022-08-16T02:04:14.355Z, 35.74
2022-08-16T02:05:14.345Z, 35.89
2022-08-16T02:06:14.357Z, 35.71
2022-08-16T02:07:14.386Z, 36.00
2022-08-16T02:08:32.847Z, 35.79
2022-08-16T02:09:14.527Z, 35.66
2022-08-16T02:10:14.515Z, 35.50
2022-08-16T02:11:14.540Z, 35.65
2022-08-16T02:12:49.741Z, 35.60
2022-08-16T02:13:14.664Z, 35.98
2022-08-16T02:14:18.025Z, 35.70
2022-08-16T02:15:14.654Z, 35.79
2022-08-16T02:16:18.805Z, 35.81
2022-08-16T02:17:14.709Z, 35.79
2022-08-16T02:18:18.757Z, 35.86
2022-08-16T02:19:16.276Z, 35.64
2022-08-16T02:20:14.861Z, 35.85
2022-08-16T02:21:15.528Z, 35.73
2022-08-16T02:22:33.460Z, 35.71
2022-08-16T02:23:17.127Z, 35.61
2022-08-16T02:24:31.580Z, 35.72
2022-08-16T02:25:15.131Z, 35.72
2022-08-16T02:26:16.974Z, 35.58
2022-08-16T02:27:15.081Z, 35.73
2022-08-16T02:28:17.411Z, 35.96
2022-08-16T02:29:15.187Z, 35.77
2022-08-16T02:30:36.066Z, 35.60
2022-08-16T02:31:15.236Z, 35.47
2022-08-16T02:32:50.649Z, 35.71
2022-08-16T02:33:15.402Z, 35.73
2022-08-16T02:34:15.312Z, 35.57
2022-08-16T02:35:16.023Z, 35.76
2022-08-16T02:36:47.655Z, 35.82
2022-08-16T02:37:15.464Z, 35.80
2022-08-16T02:38:15.457Z, 35.52
2022-08-16T02:39:15.476Z, 35.62
2022-08-16T02:40:16.137Z, 35.71
2022-08-16T02:41:15.529Z, 35.67
2022-08-16T02:42:15.641Z, 35.68
2022-08-16T02:43:15.626Z, 35.64
2022-08-16T02:44:15.661Z, 35.65
2022-08-16T02:45:15.729Z, 35.70
2022-08-16T02:46:15.792Z, 35.93
2022-08-16T02:47:25.229Z, 36.01
2022-08-16T02:48:29.396Z, 35.96
2022-08-16T02:49:15.882Z, 35.64
2022-08-16T02:50:54.152Z, 35.67
2022-08-16T02:51:15.900Z, 35.91
2022-08-16T02:52:29.059Z, 35.57
2022-08-16T02:53:18.189Z, 35.48
2022-08-16T02:54:16.860Z, 35.48
2022-08-16T02:55:16.026Z, 35.29
2022-08-16T02:56:16.220Z, 35.37
2022-08-16T02:57:16.101Z, 35.62
2022-08-16T02:58:16.138Z, 35.59
2022-08-16T02:59:16.194Z, 35.77
2022-08-16T03:00:34.719Z, 35.64
2022-08-16T03:01:24.863Z, 35.75
2022-08-16T03:02:16.472Z, 35.60
2022-08-16T03:03:17.608Z, 35.86
2022-08-16T03:04:40.685Z, 35.72
2022-08-16T03:05:16.377Z, 35.45
2022-08-16T03:06:41.565Z, 35.57
2022-08-16T03:07:16.448Z, 35.62
2022-08-16T03:08:51.916Z, 35.64
2022-08-16T03:09:16.596Z, 35.71
2022-08-16T03:10:16.569Z, 35.94
2022-08-16T03:11:17.868Z, 35.73
2022-08-16T03:12:17.896Z, 35.68
2022-08-16T03:13:16.696Z, 35.80
2022-08-16T03:14:20.868Z, 35.62
2022-08-16T03:15:17.786Z, 35.79
2022-08-16T03:16:33.052Z, 35.74
2022-08-16T03:17:16.773Z, 35.70
2022-08-16T03:18:34.159Z, 35.85
2022-08-16T03:19:16.821Z, 35.76
2022-08-16T03:20:18.313Z, 35.71
2022-08-16T03:21:16.906Z, 35.81
2022-08-16T03:22:19.464Z, 35.67
2022-08-16T03:23:17.002Z, 35.81
2022-08-16T03:24:29.376Z, 35.69
2022-08-16T03:25:17.039Z, 35.63
2022-08-16T03:26:18.019Z, 35.46
2022-08-16T03:27:17.128Z, 35.60
2022-08-16T03:28:17.789Z, 35.92
2022-08-16T03:29:17.172Z, 35.69
2022-08-16T03:30:17.583Z, 35.64
2022-08-16T03:31:17.302Z, 35.53
2022-08-16T03:32:17.293Z, 35.50
2022-08-16T03:33:17.304Z, 35.46
2022-08-16T03:34:17.336Z, 35.38
2022-08-16T03:35:17.814Z, 35.49
2022-08-16T03:36:30.238Z, 35.62
2022-08-16T03:37:17.474Z, 35.41
2022-08-16T03:38:34.666Z, 35.50
2022-08-16T03:39:20.189Z, 35.42
2022-08-16T03:40:31.592Z, 35.55
2022-08-16T03:41:29.195Z, 35.74
2022-08-16T03:42:20.190Z, 35.47
2022-08-16T03:43:20.187Z, 35.42
2022-08-16T03:44:44.208Z, 35.64
2022-08-16T03:45:17.797Z, 35.56
2022-08-16T03:46:47.398Z, 35.56
2022-08-16T03:47:19.244Z, 35.51
2022-08-16T03:48:18.134Z, 35.44
2022-08-16T03:49:17.888Z, 35.57
2022-08-16T03:50:25.866Z, 35.49
2022-08-16T03:51:17.913Z, 35.54
2022-08-16T03:52:17.955Z, 35.59
2022-08-16T03:53:17.987Z, 35.53
2022-08-16T03:54:18.020Z, 35.58
2022-08-16T03:55:18.110Z, 35.55
2022-08-16T03:56:20.944Z, 35.50
2022-08-16T03:57:18.121Z, 35.64
2022-08-16T03:58:18.216Z, 35.55
2022-08-16T03:59:18.201Z, 35.56
2022-08-16T04:00:35.705Z, 35.60
2022-08-16T04:01:18.299Z, 35.45
2022-08-16T04:02:22.339Z, 35.66
2022-08-16T04:03:18.634Z, 35.57
2022-08-16T04:04:33.089Z, 35.68
2022-08-16T04:05:18.466Z, 35.53
2022-08-16T04:06:18.449Z, 35.68
2022-08-16T04:07:18.539Z, 35.55
2022-08-16T04:08:22.705Z, 35.64
2022-08-16T04:09:18.567Z, 35.64
2022-08-16T04:10:37.070Z, 35.72
2022-08-16T04:11:18.617Z, 35.56
2022-08-16T04:13:20.180Z, 35.60
2022-08-16T04:13:20.458Z, 35.62
2022-08-16T04:14:32.366Z, 35.68
2022-08-16T04:15:18.699Z, 35.44
2022-08-16T04:16:26.280Z, 35.62
2022-08-16T04:17:18.794Z, 35.41
2022-08-16T04:18:18.801Z, 35.81
2022-08-16T04:19:18.899Z, 35.53
2022-08-16T04:20:29.521Z, 35.47
2022-08-16T04:21:29.423Z, 35.68
2022-08-16T04:22:18.951Z, 35.63
2022-08-16T04:23:19.057Z, 35.53
2022-08-16T04:24:19.023Z, 35.72
2022-08-16T04:25:19.115Z, 35.39
2022-08-16T04:26:19.131Z, 35.51
2022-08-16T04:27:19.120Z, 35.60
2022-08-16T04:28:52.018Z, 35.47
2022-08-16T04:29:24.435Z, 35.50
2022-08-16T04:30:31.849Z, 35.68
2022-08-16T04:31:19.301Z, 35.61
2022-08-16T04:32:19.663Z, 35.73
2022-08-16T04:33:19.337Z, 35.50
2022-08-16T04:34:19.369Z, 35.44
2022-08-16T04:35:19.462Z, 35.29
2022-08-16T04:36:20.045Z, 35.60
2022-08-16T04:37:19.547Z, 35.42
2022-08-16T04:38:20.992Z, 35.43
2022-08-16T04:39:19.577Z, 35.48
2022-08-16T04:40:20.637Z, 35.35
2022-08-16T04:41:19.607Z, 35.42
2022-08-16T04:42:26.442Z, 35.69
2022-08-16T04:43:19.644Z, 35.53
2022-08-16T04:44:52.628Z, 35.58
2022-08-16T04:45:36.026Z, 35.68
2022-08-16T04:47:02.429Z, 35.53
2022-08-16T04:47:24.104Z, 35.63
2022-08-16T04:48:22.095Z, 35.75
2022-08-16T04:49:19.915Z, 35.78
2022-08-16T04:50:19.942Z, 35.83
2022-08-16T04:51:19.975Z, 35.68
2022-08-16T04:52:33.989Z, 35.51
2022-08-16T04:53:20.007Z, 35.55
2022-08-16T04:54:20.087Z, 35.69
2022-08-16T04:55:20.126Z, 35.35
2022-08-16T04:56:20.166Z, 35.54
2022-08-16T04:57:20.143Z, 35.49
2022-08-16T04:58:44.723Z, 35.39
2022-08-16T04:59:20.274Z, 35.24
2022-08-16T05:00:30.818Z, 35.52
2022-08-16T05:01:20.340Z, 35.68
2022-08-16T05:02:41.461Z, 35.68
2022-08-16T05:03:20.425Z, 35.65
2022-08-16T05:04:20.409Z, 33.07
2022-08-16T05:05:20.437Z, 34.95
2022-08-16T05:06:20.502Z, 35.16
2022-08-16T05:07:20.751Z, 35.25
2022-08-16T05:08:28.015Z, 34.63
2022-08-16T05:09:22.876Z, 35.31
2022-08-16T05:10:22.796Z, 35.28
2022-08-16T05:11:20.646Z, 35.46
2022-08-16T05:12:22.183Z, 35.20
2022-08-16T05:13:20.754Z, 35.43
2022-08-16T05:14:46.131Z, 36.03
2022-08-16T05:15:20.768Z, 36.12
2022-08-16T05:16:21.729Z, 35.85
2022-08-16T05:17:24.731Z, 36.15
2022-08-16T05:18:23.295Z, 36.01
2022-08-16T05:19:20.913Z, 36.20
2022-08-16T05:20:39.607Z, 35.98
2022-08-16T05:21:21.658Z, 34.81
2022-08-16T05:22:20.983Z, 32.74
2022-08-16T05:23:21.083Z, 33.00
2022-08-16T05:24:24.686Z, 33.41
2022-08-16T05:25:21.139Z, 33.07
2022-08-16T05:26:21.141Z, 32.99
2022-08-16T05:27:21.189Z, 32.93
2022-08-16T05:28:21.182Z, 33.17
2022-08-16T05:29:21.285Z, 33.24
2022-08-16T05:30:34.528Z, 33.71
2022-08-16T05:31:21.319Z, 33.35
2022-08-16T05:32:34.296Z, 33.49
2022-08-16T05:33:21.354Z, 33.34
2022-08-16T05:34:21.475Z, 33.97
2022-08-16T05:35:21.429Z, 33.29
2022-08-16T05:36:22.460Z, 33.64
2022-08-16T05:37:21.540Z, 34.06
2022-08-16T05:38:32.407Z, 34.42
2022-08-16T05:45:38.042Z, 33.80
2022-08-16T05:46:30.331Z, 34.79
2022-08-16T05:47:21.800Z, 34.98
2022-08-16T05:48:21.820Z, 34.78
2022-08-16T05:49:22.555Z, 34.61
2022-08-16T05:50:21.892Z, 34.64
2022-08-16T05:51:38.244Z, 35.20
2022-08-16T05:52:21.988Z, 34.70
2022-08-16T05:53:24.762Z, 34.71
2022-08-16T05:54:25.066Z, 34.97
2022-08-16T05:55:22.121Z, 34.65
2022-08-16T05:56:22.139Z, 35.22
2022-08-16T05:57:22.133Z, 34.85
2022-08-16T05:58:33.178Z, 35.24
2022-08-16T05:59:22.292Z, 35.71
2022-08-16T06:00:22.898Z, 36.52
2022-08-16T06:01:22.337Z, 36.07
2022-08-16T06:02:22.386Z, 35.93
2022-08-16T06:03:22.366Z, 34.89
2022-08-16T06:04:36.035Z, 35.40
2022-08-16T06:05:22.407Z, 35.01
2022-08-16T06:06:27.871Z, 35.06
2022-08-16T06:07:26.180Z, 35.35
2022-08-16T06:08:32.364Z, 35.64
2022-08-16T06:09:22.536Z, 35.83
2022-08-16T06:10:33.265Z, 36.12
2022-08-16T06:11:22.622Z, 36.04
2022-08-16T06:12:27.491Z, 35.75
2022-08-16T06:13:22.699Z, 36.44
2022-08-16T06:14:22.688Z, 36.59
2022-08-16T06:15:22.719Z, 36.17
2022-08-16T06:16:22.763Z, 35.45
2022-08-16T06:17:22.774Z, 35.40
2022-08-16T06:18:22.830Z, 36.23
2022-08-16T06:19:23.678Z, 36.45
2022-08-16T06:20:23.824Z, 36.02
2022-08-16T06:21:23.870Z, 36.51
2022-08-16T06:22:37.301Z, 35.88
2022-08-16T06:23:23.411Z, 36.14
2022-08-16T06:24:52.891Z, 35.89
2022-08-16T06:25:36.474Z, 35.90
2022-08-16T06:26:23.169Z, 35.26
2022-08-16T06:27:23.150Z, 35.26
2022-08-16T06:28:34.753Z, 36.18
2022-08-16T06:29:23.204Z, 35.83
2022-08-16T06:30:23.239Z, 35.49
2022-08-16T06:31:25.011Z, 36.42
2022-08-16T06:32:28.105Z, 36.40
2022-08-16T06:33:23.352Z, 36.49
2022-08-16T06:34:53.211Z, 36.12
2022-08-16T06:35:23.398Z, 35.61
2022-08-16T06:36:23.814Z, 35.15
2022-08-16T06:37:23.484Z, 36.48
2022-08-16T06:38:33.860Z, 36.05
2022-08-16T06:39:23.615Z, 36.47
2022-08-16T06:40:23.653Z, 36.12
2022-08-16T06:41:23.596Z, 36.26
2022-08-16T06:42:23.689Z, 35.49
2022-08-16T06:43:27.262Z, 36.11
2022-08-16T06:44:24.371Z, 35.40
2022-08-16T06:45:24.086Z, 34.70
2022-08-16T06:46:23.788Z, 35.74
2022-08-16T06:47:23.869Z, 36.53
2022-08-16T06:48:33.031Z, 36.22
2022-08-16T06:49:23.871Z, 36.62
2022-08-16T06:50:29.266Z, 36.47
2022-08-16T06:51:23.933Z, 36.35
2022-08-16T06:52:57.875Z, 36.32
2022-08-16T06:53:24.051Z, 36.32
2022-08-16T06:54:24.067Z, 36.62
2022-08-16T06:55:24.097Z, 36.53
2022-08-16T06:56:24.144Z, 36.45
2022-08-16T06:57:24.161Z, 36.49
2022-08-16T06:58:31.463Z, 36.52
2022-08-16T06:59:25.969Z, 36.39
2022-08-16T07:00:26.815Z, 36.49
2022-08-16T07:01:44.357Z, 36.42
2022-08-16T07:02:32.878Z, 36.42
2022-08-16T07:03:27.460Z, 36.26
2022-08-16T07:04:31.909Z, 36.36
2022-08-16T07:05:27.091Z, 36.40
2022-08-16T07:06:26.581Z, 36.43
2022-08-16T07:07:24.490Z, 36.49
2022-08-16T07:08:24.546Z, 37.19
2022-08-16T07:09:24.542Z, 36.73
2022-08-16T07:10:25.704Z, 36.58
2022-08-16T07:11:47.316Z, 36.17
2022-08-16T07:12:36.712Z, 36.57
2022-08-16T07:13:58.580Z, 36.54
2022-08-16T07:14:27.023Z, 36.50
2022-08-16T07:15:25.254Z, 36.54
2022-08-16T07:16:27.618Z, 36.30
2022-08-16T07:17:24.812Z, 36.59
2022-08-16T07:18:24.932Z, 36.55
2022-08-16T07:19:33.508Z, 36.53
2022-08-16T07:20:35.295Z, 36.47
2022-08-16T07:21:24.969Z, 36.20
2022-08-16T07:22:37.051Z, 36.66
2022-08-16T07:23:37.233Z, 36.40
2022-08-16T07:24:29.750Z, 36.39
2022-08-16T07:25:25.100Z, 36.68
2022-08-16T07:26:25.713Z, 36.37
2022-08-16T07:27:25.205Z, 36.39
2022-08-16T07:28:25.229Z, 36.64
2022-08-16T07:29:25.225Z, 36.55
2022-08-16T07:30:38.265Z, 36.67
2022-08-16T07:31:25.318Z, 36.73
2022-08-16T07:32:29.534Z, 36.48
2022-08-16T07:33:52.841Z, 36.46
2022-08-16T07:34:35.522Z, 36.50
2022-08-16T07:35:25.411Z, 36.45
2022-08-16T07:36:25.496Z, 36.52
2022-08-16T07:37:25.526Z, 36.75
2022-08-16T07:38:33.825Z, 36.54
2022-08-16T07:39:27.547Z, 36.57
2022-08-16T07:40:49.575Z, 36.74
2022-08-16T07:41:25.660Z, 36.67
2022-08-16T07:42:28.279Z, 36.52
2022-08-16T07:43:29.320Z, 36.60
2022-08-16T07:44:25.769Z, 36.60
2022-08-16T07:45:25.756Z, 36.62
2022-08-16T07:46:37.668Z, 36.43
2022-08-16T07:47:31.942Z, 36.51
2022-08-16T07:48:25.855Z, 36.54
2022-08-16T07:49:25.870Z, 36.62
2022-08-16T07:50:57.383Z, 36.70
2022-08-16T07:51:25.995Z, 36.59
2022-08-16T07:52:29.762Z, 36.59
2022-08-16T07:53:29.051Z, 36.78
2022-08-16T07:54:37.813Z, 36.71
2022-08-16T07:55:26.076Z, 36.76
2022-08-16T07:56:33.836Z, 36.79
2022-08-16T07:57:26.341Z, 36.76
2022-08-16T07:58:33.846Z, 36.75
2022-08-16T07:59:26.202Z, 36.37
2022-08-16T08:00:26.485Z, 36.77
2022-08-16T08:01:28.238Z, 36.66
2022-08-16T08:02:27.406Z, 36.46
2022-08-16T08:03:36.092Z, 36.78
2022-08-16T08:04:26.392Z, 36.66
2022-08-16T08:05:35.698Z, 36.56
2022-08-16T08:06:26.499Z, 36.64
2022-08-16T08:07:27.476Z, 36.48
2022-08-16T08:08:49.756Z, 36.78
2022-08-16T08:09:26.619Z, 36.85
2022-08-16T08:10:31.781Z, 36.67
2022-08-16T08:11:28.080Z, 36.55
2022-08-16T08:12:32.336Z, 36.71
2022-08-16T08:13:41.960Z, 36.51
2022-08-16T08:14:29.830Z, 36.69
2022-08-16T08:15:26.904Z, 36.66
2022-08-16T08:16:30.825Z, 36.77
2022-08-16T08:17:42.163Z, 36.68
2022-08-16T08:18:30.315Z, 36.80
2022-08-16T08:19:26.929Z, 36.82
2022-08-16T08:20:28.187Z, 36.70
2022-08-16T08:21:27.781Z, 36.63
2022-08-16T08:22:26.996Z, 36.65
2022-08-16T08:23:27.088Z, 36.71
2022-08-16T08:24:32.366Z, 36.86
2022-08-16T08:25:32.678Z, 36.56
2022-08-16T08:26:27.114Z, 36.70
2022-08-16T08:27:27.206Z, 36.95
2022-08-16T08:28:27.225Z, 36.75
2022-08-16T08:29:37.686Z, 36.97
2022-08-16T08:30:52.272Z, 36.39
2022-08-16T08:31:27.297Z, 36.47
2022-08-16T08:32:59.507Z, 36.82
2022-08-16T08:33:27.354Z, 36.78
2022-08-16T08:34:27.383Z, 36.96
2022-08-16T08:35:28.441Z, 36.50
2022-08-16T08:36:33.014Z, 36.52
2022-08-16T08:37:27.480Z, 36.51
2022-08-16T08:38:45.150Z, 36.65
2022-08-16T08:39:27.581Z, 36.60
2022-08-16T08:40:27.840Z, 36.71
2022-08-16T08:41:28.479Z, 36.69
2022-08-16T08:42:28.103Z, 36.85
2022-08-16T08:43:27.667Z, 36.75
2022-08-16T08:44:28.663Z, 36.96
2022-08-16T08:45:47.962Z, 36.85
2022-08-16T08:46:27.833Z, 37.04
2022-08-16T08:47:27.838Z, 36.52
2022-08-16T08:48:32.825Z, 36.85
2022-08-16T08:49:46.814Z, 36.69
2022-08-16T08:50:32.019Z, 36.64
2022-08-16T08:51:31.879Z, 36.58
2022-08-16T08:52:34.190Z, 36.59
2022-08-16T08:53:30.548Z, 36.46
2022-08-16T08:54:28.042Z, 36.65
2022-08-16T08:55:28.076Z, 36.56
2022-08-16T08:56:28.108Z, 36.61
2022-08-16T08:57:28.122Z, 36.63
2022-08-16T08:58:34.024Z, 36.65
2022-08-16T08:59:28.220Z, 36.69
2022-08-16T09:00:30.148Z, 36.55
2022-08-16T09:01:31.649Z, 36.62
2022-08-16T09:02:28.296Z, 36.52
2022-08-16T09:03:28.321Z, 36.60
2022-08-16T09:04:28.419Z, 36.49
2022-08-16T09:05:35.595Z, 36.92
2022-08-16T09:06:28.416Z, 36.71
2022-08-16T09:07:28.500Z, 36.79
2022-08-16T09:08:28.557Z, 36.76
2022-08-16T09:09:33.516Z, 36.85
2022-08-16T09:10:29.622Z, 36.82
2022-08-16T09:11:40.583Z, 36.66
2022-08-16T09:12:36.343Z, 36.72
2022-08-16T09:13:28.781Z, 36.79
2022-08-16T09:14:28.746Z, 36.88
2022-08-16T09:15:32.788Z, 36.84
2022-08-16T09:17:02.669Z, 36.86
2022-08-16T09:17:45.598Z, 36.74
2022-08-16T09:18:35.850Z, 36.84
2022-08-16T09:19:32.992Z, 36.84
2022-08-16T09:20:29.986Z, 37.04
2022-08-16T09:21:31.131Z, 36.66
2022-08-16T09:22:29.024Z, 36.86
2022-08-16T09:23:29.028Z, 37.02
2022-08-16T09:24:47.206Z, 36.73
2022-08-16T09:25:34.229Z, 36.62
2022-08-16T09:26:45.831Z, 36.91
2022-08-16T09:27:29.232Z, 36.77
2022-08-16T09:29:15.504Z, 36.57
2022-08-16T09:29:45.742Z, 36.68
2022-08-16T09:30:34.651Z, 36.83
2022-08-16T09:31:29.321Z, 36.91
2022-08-16T09:32:30.640Z, 36.99
2022-08-16T09:33:32.565Z, 36.91
2022-08-16T09:34:29.426Z, 36.85
2022-08-16T09:35:30.671Z, 36.71
2022-08-16T09:36:31.907Z, 36.75
2022-08-16T09:37:30.153Z, 36.87
2022-08-16T09:38:32.086Z, 36.87
2022-08-16T09:39:42.189Z, 36.90
2022-08-16T09:45:40.836Z, 36.93
2022-08-16T09:46:45.112Z, 37.01
2022-08-16T09:47:29.913Z, 36.83
2022-08-16T09:48:44.392Z, 37.01
2022-08-16T09:49:37.054Z, 36.82
2022-08-16T09:50:37.028Z, 36.75
2022-08-16T09:51:30.804Z, 36.88
2022-08-16T09:52:30.010Z, 36.86
2022-08-16T09:53:30.077Z, 36.57
2022-08-16T09:54:32.445Z, 37.00
2022-08-16T09:55:31.295Z, 36.88
2022-08-16T09:56:30.202Z, 36.82
2022-08-16T09:57:34.600Z, 36.94
2022-08-16T09:58:41.654Z, 36.76
2022-08-16T09:59:30.676Z, 36.67
2022-08-16T10:00:44.742Z, 37.02
2022-08-16T10:01:30.402Z, 36.82
2022-08-16T10:02:30.376Z, 36.76
2022-08-16T10:03:30.704Z, 37.02
2022-08-16T10:04:35.810Z, 36.94
2022-08-16T10:05:30.449Z, 36.87
2022-08-16T10:06:33.374Z, 36.79
2022-08-16T10:07:38.264Z, 37.05
2022-08-16T10:08:30.541Z, 36.98
2022-08-16T10:09:53.468Z, 36.88
2022-08-16T10:10:31.740Z, 36.80
2022-08-16T10:11:30.649Z, 36.87
2022-08-16T10:12:30.638Z, 36.87
2022-08-16T10:13:30.716Z, 36.87
2022-08-16T10:14:33.336Z, 36.77
2022-08-16T10:15:30.774Z, 36.83
2022-08-16T10:16:30.849Z, 36.77
2022-08-16T10:17:30.960Z, 37.18
2022-08-16T10:19:00.987Z, 36.82
2022-08-16T10:19:31.872Z, 36.88
2022-08-16T10:20:30.900Z, 36.99
2022-08-16T10:21:32.116Z, 36.95
2022-08-16T10:22:31.035Z, 36.91
2022-08-16T10:23:31.065Z, 36.53
2022-08-16T10:24:31.114Z, 36.81
2022-08-16T10:27:16.244Z, 36.96
2022-08-16T10:27:20.111Z, 36.90
2022-08-16T10:27:47.279Z, 36.85
2022-08-16T10:28:32.178Z, 36.62
2022-08-16T10:30:00.207Z, 36.89
2022-08-16T10:30:36.389Z, 36.94
2022-08-16T10:31:45.471Z, 37.01
2022-08-16T10:32:32.177Z, 37.03
2022-08-16T10:33:33.529Z, 36.96
2022-08-16T10:34:32.759Z, 36.96
2022-08-16T10:35:32.538Z, 37.12
2022-08-16T10:36:38.119Z, 36.86
2022-08-16T10:37:32.665Z, 37.13
2022-08-16T10:38:33.161Z, 36.99
2022-08-16T10:39:40.718Z, 36.64
2022-08-16T10:40:31.699Z, 36.65
2022-08-16T10:41:31.596Z, 36.66
2022-08-16T10:42:31.628Z, 36.83
2022-08-16T10:43:31.644Z, 37.02
2022-08-16T10:44:31.669Z, 36.83
2022-08-16T10:45:37.089Z, 36.87
2022-08-16T10:46:40.166Z, 36.86
2022-08-16T10:47:38.055Z, 36.87
2022-08-16T10:48:31.817Z, 36.87
2022-08-16T10:49:31.895Z, 36.95
2022-08-16T10:50:31.893Z, 36.84
2022-08-16T10:51:33.556Z, 36.77
2022-08-16T10:53:33.019Z, 36.88
2022-08-16T10:54:32.196Z, 36.95
2022-08-16T10:55:40.274Z, 36.85
2022-08-16T10:56:52.771Z, 36.73
2022-08-16T10:57:32.982Z, 36.85
2022-08-16T10:58:34.064Z, 36.78
2022-08-16T10:59:32.547Z, 36.79
2022-08-16T11:00:32.237Z, 36.93
2022-08-16T11:01:43.435Z, 37.04
2022-08-16T11:02:59.115Z, 36.52
2022-08-16T11:03:42.243Z, 36.68
2022-08-16T11:05:59.918Z, 36.62
2022-08-16T11:06:32.435Z, 36.87
2022-08-16T11:07:52.433Z, 36.62
2022-08-16T11:08:36.437Z, 36.55
2022-08-16T11:09:32.418Z, 36.41
2022-08-16T11:11:32.526Z, 36.58
2022-08-16T11:12:32.563Z, 36.69
2022-08-16T11:13:59.639Z, 37.04
2022-08-16T11:14:32.634Z, 37.03
2022-08-16T11:15:32.673Z, 36.46
2022-08-16T11:17:09.357Z, 36.79
2022-08-16T11:17:32.930Z, 37.02
2022-08-16T11:19:04.910Z, 37.13
2022-08-16T11:19:33.118Z, 36.57
2022-08-16T11:20:41.174Z, 36.56
2022-08-16T11:21:32.885Z, 36.94
2022-08-16T11:22:42.058Z, 36.84
2022-08-16T11:23:32.976Z, 36.90
2022-08-16T11:24:42.820Z, 36.96
2022-08-16T11:26:33.052Z, 36.51
2022-08-16T11:27:35.860Z, 36.76
2022-08-16T11:29:33.148Z, 36.78
2022-08-16T11:30:37.814Z, 37.06
2022-08-16T11:31:33.260Z, 36.90
2022-08-16T11:32:33.838Z, 37.05
2022-08-16T11:33:53.233Z, 37.13
2022-08-16T11:35:03.814Z, 36.93
2022-08-16T11:35:44.538Z, 36.94
2022-08-16T11:36:33.365Z, 37.18
2022-08-16T11:37:34.220Z, 36.79
2022-08-16T11:38:55.301Z, 37.02
2022-08-16T11:39:34.192Z, 37.22
2022-08-16T11:40:33.499Z, 37.40
2022-08-16T11:41:33.536Z, 37.26
2022-08-16T11:42:37.558Z, 37.05
2022-08-16T11:43:33.618Z, 37.01
2022-08-16T11:44:52.976Z, 36.87
2022-08-16T11:45:34.831Z, 36.97
2022-08-16T11:46:42.922Z, 37.30
2022-08-16T11:47:33.738Z, 37.06
2022-08-16T11:48:33.734Z, 37.19
2022-08-16T11:49:33.825Z, 37.26
2022-08-16T11:50:33.956Z, 37.21
2022-08-16T11:51:33.871Z, 37.34
2022-08-16T11:52:33.961Z, 37.40
2022-08-16T11:53:35.782Z, 36.92
2022-08-16T11:54:36.470Z, 36.68
2022-08-16T11:55:33.994Z, 37.31
2022-08-16T11:56:40.060Z, 36.86
2022-08-16T11:57:34.072Z, 37.17
2022-08-16T11:58:34.055Z, 37.18
2022-08-16T11:59:34.109Z, 37.48
2022-08-16T12:00:50.591Z, 36.92
2022-08-16T12:01:54.802Z, 36.98
2022-08-16T12:02:34.274Z, 36.81
2022-08-16T12:03:35.633Z, 36.92
2022-08-16T12:04:34.305Z, 37.01
2022-08-16T12:05:34.341Z, 36.94
2022-08-16T12:06:34.377Z, 36.78
2022-08-16T12:07:34.407Z, 36.73
2022-08-16T12:08:34.445Z, 37.31
2022-08-16T12:09:34.439Z, 37.11
2022-08-16T12:10:34.496Z, 37.03
2022-08-16T12:11:34.490Z, 36.78
2022-08-16T12:12:34.567Z, 37.12
2022-08-16T12:13:34.567Z, 36.80
2022-08-16T12:14:35.297Z, 36.89
2022-08-16T12:15:34.651Z, 36.75
2022-08-16T12:16:34.896Z, 36.29
2022-08-16T12:17:34.713Z, 36.50
2022-08-16T12:18:34.800Z, 36.63
2022-08-16T12:19:35.911Z, 36.91
2022-08-16T12:20:34.793Z, 36.72
2022-08-16T12:21:36.096Z, 36.34
2022-08-16T12:22:36.846Z, 36.17
2022-08-16T12:23:34.913Z, 36.31
2022-08-16T12:24:34.953Z, 36.44
2022-08-16T12:25:35.047Z, 36.12
2022-08-16T12:26:35.046Z, 36.15
2022-08-16T12:27:35.040Z, 36.52
2022-08-16T12:28:54.001Z, 36.11
2022-08-16T12:29:35.125Z, 36.81
2022-08-16T12:30:38.476Z, 36.59
2022-08-16T12:31:35.165Z, 36.20
2022-08-16T12:32:38.152Z, 36.63
2022-08-16T12:33:44.965Z, 36.49
2022-08-16T12:34:35.274Z, 36.62
2022-08-16T12:35:35.355Z, 36.57
2022-08-16T12:36:35.346Z, 36.46
2022-08-16T12:37:35.383Z, 36.72
2022-08-16T12:38:41.647Z, 36.42
2022-08-16T12:39:35.578Z, 36.44
2022-08-16T12:40:35.545Z, 36.43
2022-08-16T12:41:35.540Z, 36.54
2022-08-16T12:42:35.917Z, 36.63
2022-08-16T12:43:35.585Z, 36.68
2022-08-16T12:44:35.768Z, 36.69